sensor_id;sensor_type;location;lat;lon;timestamp;temperature;humidity
25741;DHT22;13592;50.838;4.412;2022-09-14T00:01:37;20.20;99.90
25741;DHT22;13592;50.838;4.412;2022-09-14T00:07:14;20.00;99.90
25741;DHT22;13592;50.838;4.412;2022-09-14T00:09:43;20.00;99.90
25741;DHT22;13592;50.838;4.412;2022-09-14T00:12:12;20.00;99.90
25741;DHT22;13592;50.838;4.412;2022-09-14T00:14:38;20.10;99.90
25741;DHT22;13592;50.838;4.412;2022-09-14T00:17:08;20.20;99.90
25741;DHT22;13592;50.838;4.412;2022-09-14T00:19:41;20.10;99.90
25741;DHT22;13592;50.838;4.412;2022-09-14T00:24:58;20.00;99.90
25741;DHT22;13592;50.838;4.412;2022-09-14T00:27:26;20.00;99.90
25741;DHT22;13592;50.838;4.412;2022-09-14T00:30:06;19.90;99.90
25741;DHT22;13592;50.838;4.412;2022-09-14T00:32:43;20.00;99.90
25741;DHT22;13592;50.838;4.412;2022-09-14T00:35:12;20.10;99.90
25741;DHT22;13592;50.838;4.412;2022-09-14T00:37:41;20.10;99.90
25741;DHT22;13592;50.838;4.412;2022-09-14T00:40:13;20.10;99.90
25741;DHT22;13592;50.838;4.412;2022-09-14T00:45:45;20.10;99.90
25741;DHT22;13592;50.838;4.412;2022-09-14T00:51:16;20.00;99.90
25741;DHT22;13592;50.838;4.412;2022-09-14T00:54:04;20.10;99.90
25741;DHT22;13592;50.838;4.412;2022-09-14T01:07:51;19.80;99.90
25741;DHT22;13592;50.838;4.412;2022-09-14T01:18:50;19.80;99.90
25741;DHT22;13592;50.838;4.412;2022-09-14T01:21:31;19.80;99.90
25741;DHT22;13592;50.838;4.412;2022-09-14T01:29:41;19.80;99.90
25741;DHT22;13592;50.838;4.412;2022-09-14T01:32:24;19.70;99.90
25741;DHT22;13592;50.838;4.412;2022-09-14T01:40:33;19.80;99.90
25741;DHT22;13592;50.838;4.412;2022-09-14T01:45:59;19.70;99.90
25741;DHT22;13592;50.838;4.412;2022-09-14T01:48:57;19.70;99.90
25741;DHT22;13592;50.838;4.412;2022-09-14T01:57:32;19.70;99.90
25741;DHT22;13592;50.838;4.412;2022-09-14T02:05:53;19.50;99.90
25741;DHT22;13592;50.838;4.412;2022-09-14T02:08:27;19.50;99.90
25741;DHT22;13592;50.838;4.412;2022-09-14T02:14:06;19.60;99.90
25741;DHT22;13592;50.838;4.412;2022-09-14T02:16:31;19.50;99.90
25741;DHT22;13592;50.838;4.412;2022-09-14T02:19:00;19.50;99.90
25741;DHT22;13592;50.838;4.412;2022-09-14T02:21:36;19.60;99.90
25741;DHT22;13592;50.838;4.412;2022-09-14T02:24:19;19.50;99.90
25741;DHT22;13592;50.838;4.412;2022-09-14T02:26:48;19.40;99.90
25741;DHT22;13592;50.838;4.412;2022-09-14T02:29:33;19.30;99.90
25741;DHT22;13592;50.838;4.412;2022-09-14T02:43:07;19.30;99.90
25741;DHT22;13592;50.838;4.412;2022-09-14T02:51:20;19.00;99.90
25741;DHT22;13592;50.838;4.412;2022-09-14T02:59:23;18.80;99.90
25741;DHT22;13592;50.838;4.412;2022-09-14T03:01:52;18.90;99.90
25741;DHT22;13592;50.838;4.412;2022-09-14T03:04:18;18.80;99.90
25741;DHT22;13592;50.838;4.412;2022-09-14T03:06:43;18.80;99.90
25741;DHT22;13592;50.838;4.412;2022-09-14T03:09:12;18.70;99.90
25741;DHT22;13592;50.838;4.412;2022-09-14T03:11:37;18.60;99.90
25741;DHT22;13592;50.838;4.412;2022-09-14T03:14:03;18.60;99.90
25741;DHT22;13592;50.838;4.412;2022-09-14T03:16:29;18.70;99.90
25741;DHT22;13592;50.838;4.412;2022-09-14T03:18:55;18.60;99.90
25741;DHT22;13592;50.838;4.412;2022-09-14T03:21:36;18.50;99.90
25741;DHT22;13592;50.838;4.412;2022-09-14T03:24:05;18.50;99.90
25741;DHT22;13592;50.838;4.412;2022-09-14T03:29:32;18.50;99.90
25741;DHT22;13592;50.838;4.412;2022-09-14T03:32:01;18.50;99.90
25741;DHT22;13592;50.838;4.412;2022-09-14T03:34:42;18.50;99.90
25741;DHT22;13592;50.838;4.412;2022-09-14T03:37:15;18.50;99.90
25741;DHT22;13592;50.838;4.412;2022-09-14T03:42:10;18.50;99.90
25741;DHT22;13592;50.838;4.412;2022-09-14T03:44:38;18.50;99.90
25741;DHT22;13592;50.838;4.412;2022-09-14T03:47:07;18.60;99.90
25741;DHT22;13592;50.838;4.412;2022-09-14T03:49:44;18.50;99.90
25741;DHT22;13592;50.838;4.412;2022-09-14T03:55:09;18.40;99.90
25741;DHT22;13592;50.838;4.412;2022-09-14T03:57:53;18.40;99.90
25741;DHT22;13592;50.838;4.412;2022-09-14T04:00:20;18.30;99.90
25741;DHT22;13592;50.838;4.412;2022-09-14T04:03:07;18.30;99.90
25741;DHT22;13592;50.838;4.412;2022-09-14T04:05:34;18.20;99.90
25741;DHT22;13592;50.838;4.412;2022-09-14T04:08:09;18.10;99.90
25741;DHT22;13592;50.838;4.412;2022-09-14T04:10:53;18.10;99.90
25741;DHT22;13592;50.838;4.412;2022-09-14T04:13:31;18.20;99.90
25741;DHT22;13592;50.838;4.412;2022-09-14T04:21:28;18.30;99.90
25741;DHT22;13592;50.838;4.412;2022-09-14T04:23:57;18.10;99.90
25741;DHT22;13592;50.838;4.412;2022-09-14T04:26:35;18.10;99.90
25741;DHT22;13592;50.838;4.412;2022-09-14T04:29:04;18.10;99.90
25741;DHT22;13592;50.838;4.412;2022-09-14T04:31:33;18.10;99.90
25741;DHT22;13592;50.838;4.412;2022-09-14T04:34:08;18.30;99.90
25741;DHT22;13592;50.838;4.412;2022-09-14T04:36:37;18.20;99.90
25741;DHT22;13592;50.838;4.412;2022-09-14T04:39:03;18.10;99.90
25741;DHT22;13592;50.838;4.412;2022-09-14T04:41:30;18.10;99.90
25741;DHT22;13592;50.838;4.412;2022-09-14T04:47:09;18.30;99.90
25741;DHT22;13592;50.838;4.412;2022-09-14T04:49:37;18.20;99.90
25741;DHT22;13592;50.838;4.412;2022-09-14T04:52:05;18.10;99.90
25741;DHT22;13592;50.838;4.412;2022-09-14T04:54:40;18.00;99.90
25741;DHT22;13592;50.838;4.412;2022-09-14T04:57:12;17.90;99.90
25741;DHT22;13592;50.838;4.412;2022-09-14T04:59:39;18.00;99.90
25741;DHT22;13592;50.838;4.412;2022-09-14T05:02:08;18.00;99.90
25741;DHT22;13592;50.838;4.412;2022-09-14T05:07:06;18.10;99.90
25741;DHT22;13592;50.838;4.412;2022-09-14T05:09:37;18.10;99.90
25741;DHT22;13592;50.838;4.412;2022-09-14T05:12:13;18.20;99.90
25741;DHT22;13592;50.838;4.412;2022-09-14T05:17:23;18.10;99.90
25741;DHT22;13592;50.838;4.412;2022-09-14T05:20:04;18.30;99.90
25741;DHT22;13592;50.838;4.412;2022-09-14T05:22:37;18.20;99.90
25741;DHT22;13592;50.838;4.412;2022-09-14T05:30:15;18.20;99.90
25741;DHT22;13592;50.838;4.412;2022-09-14T05:32:46;18.20;99.90
25741;DHT22;13592;50.838;4.412;2022-09-14T05:40:44;18.20;99.90
25741;DHT22;13592;50.838;4.412;2022-09-14T05:43:21;18.20;99.90
25741;DHT22;13592;50.838;4.412;2022-09-14T05:46:03;18.10;99.90
25741;DHT22;13592;50.838;4.412;2022-09-14T05:48:44;18.20;99.90
25741;DHT22;13592;50.838;4.412;2022-09-14T05:51:11;18.10;99.90
25741;DHT22;13592;50.838;4.412;2022-09-14T05:53:54;18.10;99.90
25741;DHT22;13592;50.838;4.412;2022-09-14T05:56:32;18.10;99.90
25741;DHT22;13592;50.838;4.412;2022-09-14T05:58:59;17.90;99.90
25741;DHT22;13592;50.838;4.412;2022-09-14T06:01:26;17.90;99.90
25741;DHT22;13592;50.838;4.412;2022-09-14T06:03:58;17.90;99.90
25741;DHT22;13592;50.838;4.412;2022-09-14T06:06:29;18.00;99.90
25741;DHT22;13592;50.838;4.412;2022-09-14T06:09:00;18.00;99.90
25741;DHT22;13592;50.838;4.412;2022-09-14T06:11:37;17.90;99.90
25741;DHT22;13592;50.838;4.412;2022-09-14T06:14:03;18.00;99.90
25741;DHT22;13592;50.838;4.412;2022-09-14T06:18:58;18.10;99.90
25741;DHT22;13592;50.838;4.412;2022-09-14T06:21:29;17.90;99.90
25741;DHT22;13592;50.838;4.412;2022-09-14T06:23:58;17.90;99.90
25741;DHT22;13592;50.838;4.412;2022-09-14T06:26:30;18.00;99.90
25741;DHT22;13592;50.838;4.412;2022-09-14T06:28:59;17.90;99.90
25741;DHT22;13592;50.838;4.412;2022-09-14T06:31:44;17.90;99.90
25741;DHT22;13592;50.838;4.412;2022-09-14T06:39:39;17.80;99.90
25741;DHT22;13592;50.838;4.412;2022-09-14T06:42:27;17.90;99.90
25741;DHT22;13592;50.838;4.412;2022-09-14T06:44:55;17.90;99.90
25741;DHT22;13592;50.838;4.412;2022-09-14T06:47:22;17.90;99.90
25741;DHT22;13592;50.838;4.412;2022-09-14T06:49:48;17.90;99.90
25741;DHT22;13592;50.838;4.412;2022-09-14T06:52:22;18.00;99.90
25741;DHT22;13592;50.838;4.412;2022-09-14T06:54:53;18.00;99.90
25741;DHT22;13592;50.838;4.412;2022-09-14T07:02:36;18.00;99.90
25741;DHT22;13592;50.838;4.412;2022-09-14T07:05:02;18.10;99.90
25741;DHT22;13592;50.838;4.412;2022-09-14T07:07:38;18.10;99.90
25741;DHT22;13592;50.838;4.412;2022-09-14T07:10:12;18.20;99.90
25741;DHT22;13592;50.838;4.412;2022-09-14T07:12:41;18.20;99.90
25741;DHT22;13592;50.838;4.412;2022-09-14T07:15:13;18.10;99.90
25741;DHT22;13592;50.838;4.412;2022-09-14T07:17:44;18.00;99.90
25741;DHT22;13592;50.838;4.412;2022-09-14T07:20:22;17.80;99.90
25741;DHT22;13592;50.838;4.412;2022-09-14T07:22:49;17.80;99.90
25741;DHT22;13592;50.838;4.412;2022-09-14T07:25:14;17.70;99.90
25741;DHT22;13592;50.838;4.412;2022-09-14T07:27:41;17.80;99.90
25741;DHT22;13592;50.838;4.412;2022-09-14T07:30:13;17.70;99.90
25741;DHT22;13592;50.838;4.412;2022-09-14T07:32:43;17.70;99.90
25741;DHT22;13592;50.838;4.412;2022-09-14T07:37:41;17.80;99.90
25741;DHT22;13592;50.838;4.412;2022-09-14T07:42:37;17.70;99.90
25741;DHT22;13592;50.838;4.412;2022-09-14T07:45:04;17.60;99.90
25741;DHT22;13592;50.838;4.412;2022-09-14T07:47:30;17.70;99.90
25741;DHT22;13592;50.838;4.412;2022-09-14T07:49:56;17.80;99.90
25741;DHT22;13592;50.838;4.412;2022-09-14T07:52:24;17.70;99.90
25741;DHT22;13592;50.838;4.412;2022-09-14T07:54:59;17.70;99.90
25741;DHT22;13592;50.838;4.412;2022-09-14T07:57:31;18.00;99.90
25741;DHT22;13592;50.838;4.412;2022-09-14T08:03:11;18.00;99.90
25741;DHT22;13592;50.838;4.412;2022-09-14T08:05:56;17.80;99.90
25741;DHT22;13592;50.838;4.412;2022-09-14T08:14:19;17.90;99.90
25741;DHT22;13592;50.838;4.412;2022-09-14T08:16:46;17.80;99.90
25741;DHT22;13592;50.838;4.412;2022-09-14T08:19:21;17.90;99.90
25741;DHT22;13592;50.838;4.412;2022-09-14T08:21:48;18.00;99.90
25741;DHT22;13592;50.838;4.412;2022-09-14T08:24:16;17.90;99.90
25741;DHT22;13592;50.838;4.412;2022-09-14T08:26:44;18.10;99.90
25741;DHT22;13592;50.838;4.412;2022-09-14T08:29:11;17.90;99.90
25741;DHT22;13592;50.838;4.412;2022-09-14T08:31:39;17.90;99.90
25741;DHT22;13592;50.838;4.412;2022-09-14T08:34:05;17.80;99.90
25741;DHT22;13592;50.838;4.412;2022-09-14T08:36:37;17.90;99.90
25741;DHT22;13592;50.838;4.412;2022-09-14T08:39:06;17.90;99.90
25741;DHT22;13592;50.838;4.412;2022-09-14T08:47:29;17.90;99.90
25741;DHT22;13592;50.838;4.412;2022-09-14T08:52:51;18.00;99.90
25741;DHT22;13592;50.838;4.412;2022-09-14T09:00:54;18.20;99.90
25741;DHT22;13592;50.838;4.412;2022-09-14T09:06:10;18.00;99.90
25741;DHT22;13592;50.838;4.412;2022-09-14T09:16:08;18.10;99.90
25741;DHT22;13592;50.838;4.412;2022-09-14T09:21:06;18.10;99.90
25741;DHT22;13592;50.838;4.412;2022-09-14T09:26:32;18.10;99.90
25741;DHT22;13592;50.838;4.412;2022-09-14T09:29:01;18.10;99.90
25741;DHT22;13592;50.838;4.412;2022-09-14T09:31:35;18.10;99.90
25741;DHT22;13592;50.838;4.412;2022-09-14T09:34:01;18.10;99.90
25741;DHT22;13592;50.838;4.412;2022-09-14T09:36:39;18.20;99.90
25741;DHT22;13592;50.838;4.412;2022-09-14T09:42:00;18.10;99.90
25741;DHT22;13592;50.838;4.412;2022-09-14T09:44:25;18.20;99.90
25741;DHT22;13592;50.838;4.412;2022-09-14T09:47:06;18.20;99.90
25741;DHT22;13592;50.838;4.412;2022-09-14T09:49:37;18.10;99.90
25741;DHT22;13592;50.838;4.412;2022-09-14T09:52:19;18.10;99.90
25741;DHT22;13592;50.838;4.412;2022-09-14T09:54:55;18.40;99.90
25741;DHT22;13592;50.838;4.412;2022-09-14T09:59:47;18.30;99.90
25741;DHT22;13592;50.838;4.412;2022-09-14T10:02:25;18.40;99.90
25741;DHT22;13592;50.838;4.412;2022-09-14T10:07:51;18.40;99.90
25741;DHT22;13592;50.838;4.412;2022-09-14T10:10:19;18.30;99.90
25741;DHT22;13592;50.838;4.412;2022-09-14T10:12:46;18.30;99.90
25741;DHT22;13592;50.838;4.412;2022-09-14T10:15:24;18.40;99.90
25741;DHT22;13592;50.838;4.412;2022-09-14T10:20:34;18.50;99.90
25741;DHT22;13592;50.838;4.412;2022-09-14T10:26:16;18.50;99.90
25741;DHT22;13592;50.838;4.412;2022-09-14T10:28:48;18.40;99.90
25741;DHT22;13592;50.838;4.412;2022-09-14T10:31:20;18.40;99.90
25741;DHT22;13592;50.838;4.412;2022-09-14T10:33:49;18.40;99.90
25741;DHT22;13592;50.838;4.412;2022-09-14T10:44:22;18.60;99.90
25741;DHT22;13592;50.838;4.412;2022-09-14T10:49:34;18.70;99.90
25741;DHT22;13592;50.838;4.412;2022-09-14T11:00:25;18.70;99.90
25741;DHT22;13592;50.838;4.412;2022-09-14T11:08:38;18.60;99.90
25741;DHT22;13592;50.838;4.412;2022-09-14T11:24:42;18.60;99.90
25741;DHT22;13592;50.838;4.412;2022-09-14T11:32:53;18.50;99.90
25741;DHT22;13592;50.838;4.412;2022-09-14T11:35:26;18.50;99.90
25741;DHT22;13592;50.838;4.412;2022-09-14T11:40:42;18.50;99.90
25741;DHT22;13592;50.838;4.412;2022-09-14T11:45:46;18.50;99.90
25741;DHT22;13592;50.838;4.412;2022-09-14T11:53:46;18.60;99.90
25741;DHT22;13592;50.838;4.412;2022-09-14T12:01:53;18.40;99.90
25741;DHT22;13592;50.838;4.412;2022-09-14T12:04:22;18.40;99.90
25741;DHT22;13592;50.838;4.412;2022-09-14T12:07:11;18.50;99.90
25741;DHT22;13592;50.838;4.412;2022-09-14T12:10:10;18.70;99.90
25741;DHT22;13592;50.838;4.412;2022-09-14T12:28:40;18.70;99.90
25741;DHT22;13592;50.838;4.412;2022-09-14T12:39:27;18.70;99.90
25741;DHT22;13592;50.838;4.412;2022-09-14T12:41:59;18.60;99.90
25741;DHT22;13592;50.838;4.412;2022-09-14T12:44:31;18.40;99.90
25741;DHT22;13592;50.838;4.412;2022-09-14T12:49:45;18.50;99.90
25741;DHT22;13592;50.838;4.412;2022-09-14T12:52:16;18.40;99.90
25741;DHT22;13592;50.838;4.412;2022-09-14T12:55:00;18.40;99.90
25741;DHT22;13592;50.838;4.412;2022-09-14T12:57:35;18.30;99.90
25741;DHT22;13592;50.838;4.412;2022-09-14T13:00:15;18.30;99.90
25741;DHT22;13592;50.838;4.412;2022-09-14T13:05:18;18.50;99.90
25741;DHT22;13592;50.838;4.412;2022-09-14T13:07:48;18.50;99.90
25741;DHT22;13592;50.838;4.412;2022-09-14T13:10:18;18.60;99.90
25741;DHT22;13592;50.838;4.412;2022-09-14T13:12:46;18.50;99.90
25741;DHT22;13592;50.838;4.412;2022-09-14T13:15:24;18.50;99.90
25741;DHT22;13592;50.838;4.412;2022-09-14T13:18:03;18.40;99.90
25741;DHT22;13592;50.838;4.412;2022-09-14T13:23:00;18.50;99.90
25741;DHT22;13592;50.838;4.412;2022-09-14T13:27:59;18.50;99.90
25741;DHT22;13592;50.838;4.412;2022-09-14T13:30:25;18.50;99.90
25741;DHT22;13592;50.838;4.412;2022-09-14T13:32:54;18.60;99.90
25741;DHT22;13592;50.838;4.412;2022-09-14T13:35:37;18.50;99.90
25741;DHT22;13592;50.838;4.412;2022-09-14T13:38:37;18.50;99.90
25741;DHT22;13592;50.838;4.412;2022-09-14T13:41:18;18.50;99.90
25741;DHT22;13592;50.838;4.412;2022-09-14T13:43:54;18.50;99.90
25741;DHT22;13592;50.838;4.412;2022-09-14T13:46:22;18.50;99.90
25741;DHT22;13592;50.838;4.412;2022-09-14T13:48:51;18.50;99.90
25741;DHT22;13592;50.838;4.412;2022-09-14T13:51:20;18.60;99.90
25741;DHT22;13592;50.838;4.412;2022-09-14T13:53:47;18.50;99.90
25741;DHT22;13592;50.838;4.412;2022-09-14T13:56:20;18.40;99.90
25741;DHT22;13592;50.838;4.412;2022-09-14T14:01:25;18.60;99.90
25741;DHT22;13592;50.838;4.412;2022-09-14T14:03:53;18.60;99.90
25741;DHT22;13592;50.838;4.412;2022-09-14T14:06:28;18.90;99.90
25741;DHT22;13592;50.838;4.412;2022-09-14T14:09:09;18.90;99.90
25741;DHT22;13592;50.838;4.412;2022-09-14T14:11:38;18.70;99.90
25741;DHT22;13592;50.838;4.412;2022-09-14T14:19:27;18.60;99.90
25741;DHT22;13592;50.838;4.412;2022-09-14T14:22:10;18.50;99.90
25741;DHT22;13592;50.838;4.412;2022-09-14T14:24:43;18.70;99.90
25741;DHT22;13592;50.838;4.412;2022-09-14T14:29:46;18.50;99.90
25741;DHT22;13592;50.838;4.412;2022-09-14T14:34:44;18.50;99.90
25741;DHT22;13592;50.838;4.412;2022-09-14T14:37:10;18.50;99.90
25741;DHT22;13592;50.838;4.412;2022-09-14T14:39:37;18.60;99.90
25741;DHT22;13592;50.838;4.412;2022-09-14T14:42:09;18.70;99.90
25741;DHT22;13592;50.838;4.412;2022-09-14T14:44:38;18.70;99.90
25741;DHT22;13592;50.838;4.412;2022-09-14T14:47:11;18.70;99.90
25741;DHT22;13592;50.838;4.412;2022-09-14T14:49:51;18.60;99.90
25741;DHT22;13592;50.838;4.412;2022-09-14T14:52:19;18.70;99.90
25741;DHT22;13592;50.838;4.412;2022-09-14T14:54:46;18.50;99.90
25741;DHT22;13592;50.838;4.412;2022-09-14T14:57:18;18.40;99.90
25741;DHT22;13592;50.838;4.412;2022-09-14T14:59:44;18.60;99.90
25741;DHT22;13592;50.838;4.412;2022-09-14T15:04:38;18.50;99.90
25741;DHT22;13592;50.838;4.412;2022-09-14T15:09:34;18.60;99.90
25741;DHT22;13592;50.838;4.412;2022-09-14T15:14:31;18.30;99.90
25741;DHT22;13592;50.838;4.412;2022-09-14T15:17:05;18.40;99.90
25741;DHT22;13592;50.838;4.412;2022-09-14T15:19:30;18.50;99.90
25741;DHT22;13592;50.838;4.412;2022-09-14T15:24:25;18.50;99.90
25741;DHT22;13592;50.838;4.412;2022-09-14T15:26:57;18.40;99.90
25741;DHT22;13592;50.838;4.412;2022-09-14T15:29:24;18.30;99.90
25741;DHT22;13592;50.838;4.412;2022-09-14T15:31:52;18.20;99.90
25741;DHT22;13592;50.838;4.412;2022-09-14T15:34:19;18.10;99.90
25741;DHT22;13592;50.838;4.412;2022-09-14T15:36:52;18.20;99.90
25741;DHT22;13592;50.838;4.412;2022-09-14T15:39:25;18.20;99.90
25741;DHT22;13592;50.838;4.412;2022-09-14T15:41:51;18.10;99.90
25741;DHT22;13592;50.838;4.412;2022-09-14T15:46:46;18.10;99.90
25741;DHT22;13592;50.838;4.412;2022-09-14T15:49:14;18.10;99.90
25741;DHT22;13592;50.838;4.412;2022-09-14T15:51:46;18.10;99.90
25741;DHT22;13592;50.838;4.412;2022-09-14T15:54:15;18.00;99.90
25741;DHT22;13592;50.838;4.412;2022-09-14T15:56:48;18.10;99.90
25741;DHT22;13592;50.838;4.412;2022-09-14T15:59:18;18.30;99.90
25741;DHT22;13592;50.838;4.412;2022-09-14T16:01:46;18.30;99.90
25741;DHT22;13592;50.838;4.412;2022-09-14T16:04:15;18.40;99.90
25741;DHT22;13592;50.838;4.412;2022-09-14T16:06:53;18.30;99.90
25741;DHT22;13592;50.838;4.412;2022-09-14T16:09:23;18.20;99.90
25741;DHT22;13592;50.838;4.412;2022-09-14T16:11:51;18.00;99.90
25741;DHT22;13592;50.838;4.412;2022-09-14T16:16:51;18.00;99.90
25741;DHT22;13592;50.838;4.412;2022-09-14T16:19:17;17.90;99.90
25741;DHT22;13592;50.838;4.412;2022-09-14T16:21:42;17.90;99.90
25741;DHT22;13592;50.838;4.412;2022-09-14T16:24:13;18.10;99.90
25741;DHT22;13592;50.838;4.412;2022-09-14T16:26:41;17.90;99.90
25741;DHT22;13592;50.838;4.412;2022-09-14T16:29:13;17.90;99.90
25741;DHT22;13592;50.838;4.412;2022-09-14T16:31:42;17.90;99.90
25741;DHT22;13592;50.838;4.412;2022-09-14T16:34:28;17.80;99.90
25741;DHT22;13592;50.838;4.412;2022-09-14T16:37:00;17.80;99.90
25741;DHT22;13592;50.838;4.412;2022-09-14T16:39:28;18.00;99.90
25741;DHT22;13592;50.838;4.412;2022-09-14T16:41:56;18.00;99.90
25741;DHT22;13592;50.838;4.412;2022-09-14T16:44:26;17.90;99.90
25741;DHT22;13592;50.838;4.412;2022-09-14T16:46:56;17.80;99.90
25741;DHT22;13592;50.838;4.412;2022-09-14T16:49:23;17.80;99.90
25741;DHT22;13592;50.838;4.412;2022-09-14T16:51:55;17.80;99.90
25741;DHT22;13592;50.838;4.412;2022-09-14T16:54:22;17.80;99.90
25741;DHT22;13592;50.838;4.412;2022-09-14T16:56:51;17.80;99.90
25741;DHT22;13592;50.838;4.412;2022-09-14T16:59:26;17.70;99.90
25741;DHT22;13592;50.838;4.412;2022-09-14T17:01:53;17.70;99.90
25741;DHT22;13592;50.838;4.412;2022-09-14T17:04:40;17.70;99.90
25741;DHT22;13592;50.838;4.412;2022-09-14T17:07:07;17.90;99.90
25741;DHT22;13592;50.838;4.412;2022-09-14T17:09:34;18.00;99.90
25741;DHT22;13592;50.838;4.412;2022-09-14T17:12:11;17.90;99.90
25741;DHT22;13592;50.838;4.412;2022-09-14T17:14:39;17.80;99.90
25741;DHT22;13592;50.838;4.412;2022-09-14T17:17:08;17.80;99.90
25741;DHT22;13592;50.838;4.412;2022-09-14T17:19:37;17.90;99.90
25741;DHT22;13592;50.838;4.412;2022-09-14T17:22:05;17.90;99.90
25741;DHT22;13592;50.838;4.412;2022-09-14T17:24:31;17.80;99.90
25741;DHT22;13592;50.838;4.412;2022-09-14T17:26:58;17.70;99.90
25741;DHT22;13592;50.838;4.412;2022-09-14T17:29:24;17.60;99.90
25741;DHT22;13592;50.838;4.412;2022-09-14T17:34:22;17.50;99.90
25741;DHT22;13592;50.838;4.412;2022-09-14T17:36:53;17.50;99.90
25741;DHT22;13592;50.838;4.412;2022-09-14T17:39:20;17.70;99.90
25741;DHT22;13592;50.838;4.412;2022-09-14T17:41:45;17.70;99.90
25741;DHT22;13592;50.838;4.412;2022-09-14T17:44:12;17.60;99.90
25741;DHT22;13592;50.838;4.412;2022-09-14T17:46:40;17.70;99.90
25741;DHT22;13592;50.838;4.412;2022-09-14T17:51:39;17.70;99.90
25741;DHT22;13592;50.838;4.412;2022-09-14T17:54:04;17.80;99.90
25741;DHT22;13592;50.838;4.412;2022-09-14T17:56:32;17.70;99.90
25741;DHT22;13592;50.838;4.412;2022-09-14T17:59:09;17.60;99.90
25741;DHT22;13592;50.838;4.412;2022-09-14T18:01:41;17.70;99.90
25741;DHT22;13592;50.838;4.412;2022-09-14T18:04:16;17.70;99.90
25741;DHT22;13592;50.838;4.412;2022-09-14T18:06:44;17.80;99.90
25741;DHT22;13592;50.838;4.412;2022-09-14T18:09:17;17.80;99.90
25741;DHT22;13592;50.838;4.412;2022-09-14T18:11:44;17.70;99.90
25741;DHT22;13592;50.838;4.412;2022-09-14T18:16:40;17.60;99.90
25741;DHT22;13592;50.838;4.412;2022-09-14T18:19:09;17.70;99.90
25741;DHT22;13592;50.838;4.412;2022-09-14T18:21:37;17.60;99.90
25741;DHT22;13592;50.838;4.412;2022-09-14T18:24:06;17.50;99.90
25741;DHT22;13592;50.838;4.412;2022-09-14T18:29:06;17.50;99.90
25741;DHT22;13592;50.838;4.412;2022-09-14T18:31:33;17.50;99.90
25741;DHT22;13592;50.838;4.412;2022-09-14T18:33:59;17.50;99.90
25741;DHT22;13592;50.838;4.412;2022-09-14T18:36:28;17.30;99.90
25741;DHT22;13592;50.838;4.412;2022-09-14T18:38:59;17.30;99.90
25741;DHT22;13592;50.838;4.412;2022-09-14T18:41:27;17.30;99.90
25741;DHT22;13592;50.838;4.412;2022-09-14T18:43:59;17.20;99.90
25741;DHT22;13592;50.838;4.412;2022-09-14T18:46:25;17.30;99.90
25741;DHT22;13592;50.838;4.412;2022-09-14T18:48:52;17.50;99.90
25741;DHT22;13592;50.838;4.412;2022-09-14T18:51:25;17.40;99.90
25741;DHT22;13592;50.838;4.412;2022-09-14T18:53:55;17.30;99.90
25741;DHT22;13592;50.838;4.412;2022-09-14T18:56:21;17.40;99.90
25741;DHT22;13592;50.838;4.412;2022-09-14T18:58:47;17.40;99.90
25741;DHT22;13592;50.838;4.412;2022-09-14T19:01:13;17.40;99.90
25741;DHT22;13592;50.838;4.412;2022-09-14T19:03:41;17.40;99.90
25741;DHT22;13592;50.838;4.412;2022-09-14T19:06:08;17.50;99.90
25741;DHT22;13592;50.838;4.412;2022-09-14T19:08:34;17.40;99.90
25741;DHT22;13592;50.838;4.412;2022-09-14T19:11:42;17.40;99.90
25741;DHT22;13592;50.838;4.412;2022-09-14T19:13:53;17.50;99.90
25741;DHT22;13592;50.838;4.412;2022-09-14T19:16:20;17.70;99.90
25741;DHT22;13592;50.838;4.412;2022-09-14T19:18:48;17.50;99.90
25741;DHT22;13592;50.838;4.412;2022-09-14T19:21:15;17.40;99.90
25741;DHT22;13592;50.838;4.412;2022-09-14T19:23:42;17.30;99.90
25741;DHT22;13592;50.838;4.412;2022-09-14T19:26:14;17.30;99.90
25741;DHT22;13592;50.838;4.412;2022-09-14T19:28:41;17.40;99.90
25741;DHT22;13592;50.838;4.412;2022-09-14T19:33:35;17.40;99.90
25741;DHT22;13592;50.838;4.412;2022-09-14T19:36:20;17.30;99.90
25741;DHT22;13592;50.838;4.412;2022-09-14T19:38:49;17.30;99.90
25741;DHT22;13592;50.838;4.412;2022-09-14T19:41:15;17.30;99.90
25741;DHT22;13592;50.838;4.412;2022-09-14T19:43:48;17.20;99.90
25741;DHT22;13592;50.838;4.412;2022-09-14T19:46:15;17.30;99.90
25741;DHT22;13592;50.838;4.412;2022-09-14T19:48:45;17.20;99.90
25741;DHT22;13592;50.838;4.412;2022-09-14T19:51:27;17.40;99.90
25741;DHT22;13592;50.838;4.412;2022-09-14T19:53:55;17.30;99.90
25741;DHT22;13592;50.838;4.412;2022-09-14T19:56:32;17.30;99.90
25741;DHT22;13592;50.838;4.412;2022-09-14T20:01:34;17.40;99.90
25741;DHT22;13592;50.838;4.412;2022-09-14T20:04:03;17.40;99.90
25741;DHT22;13592;50.838;4.412;2022-09-14T20:06:30;17.30;99.90
25741;DHT22;13592;50.838;4.412;2022-09-14T20:09:02;17.20;99.90
25741;DHT22;13592;50.838;4.412;2022-09-14T20:11:37;17.20;99.90
25741;DHT22;13592;50.838;4.412;2022-09-14T20:14:04;17.20;99.90
25741;DHT22;13592;50.838;4.412;2022-09-14T20:22:45;17.20;99.90
25741;DHT22;13592;50.838;4.412;2022-09-14T20:25:12;17.40;99.90
25741;DHT22;13592;50.838;4.412;2022-09-14T20:30:26;17.30;99.90
25741;DHT22;13592;50.838;4.412;2022-09-14T20:33:02;17.20;99.90
25741;DHT22;13592;50.838;4.412;2022-09-14T20:44:31;17.60;99.90
25741;DHT22;13592;50.838;4.412;2022-09-14T20:47:03;17.40;99.90
25741;DHT22;13592;50.838;4.412;2022-09-14T20:49:32;17.30;99.90
25741;DHT22;13592;50.838;4.412;2022-09-14T20:52:03;17.20;99.90
25741;DHT22;13592;50.838;4.412;2022-09-14T21:03:39;17.30;99.90
25741;DHT22;13592;50.838;4.412;2022-09-14T21:06:19;17.60;99.90
25741;DHT22;13592;50.838;4.412;2022-09-14T21:14:17;17.50;99.90
25741;DHT22;13592;50.838;4.412;2022-09-14T21:19:46;17.30;99.90
25741;DHT22;13592;50.838;4.412;2022-09-14T21:22:15;17.20;99.90
25741;DHT22;13592;50.838;4.412;2022-09-14T21:24:42;17.40;99.90
25741;DHT22;13592;50.838;4.412;2022-09-14T21:30:11;17.30;99.90
25741;DHT22;13592;50.838;4.412;2022-09-14T21:38:46;17.30;99.90
25741;DHT22;13592;50.838;4.412;2022-09-14T21:41:27;17.20;99.90
25741;DHT22;13592;50.838;4.412;2022-09-14T21:46:57;17.30;99.90
25741;DHT22;13592;50.838;4.412;2022-09-14T21:52:29;17.10;99.90
25741;DHT22;13592;50.838;4.412;2022-09-14T21:54:59;17.10;99.90
25741;DHT22;13592;50.838;4.412;2022-09-14T21:57:26;17.10;99.90
25741;DHT22;13592;50.838;4.412;2022-09-14T21:59:56;17.10;99.90
25741;DHT22;13592;50.838;4.412;2022-09-14T22:05:25;16.90;99.90
25741;DHT22;13592;50.838;4.412;2022-09-14T22:10:54;16.90;99.90
25741;DHT22;13592;50.838;4.412;2022-09-14T22:16:24;16.80;99.90
25741;DHT22;13592;50.838;4.412;2022-09-14T22:21:53;16.70;99.90